Upstream stations:
Downstream station:
SHEF ID: BFFO2 Cimarron River near Buffalo, OK
STATION TYPE:
Regulating: Stage = 6.00, Flow = 750
PRECIP STAGE RIV-FLOW BAT-LOAD
in ft cfs volt
Ccp-Rev Ccp-Rev Ccp-Rev Ccp-Rev
(US/Central)
02/08 00:00 0.00 3.39 22 12.73
02/08 01:00 0.00 3.39 22 12.73
02/08 02:00 0.00 3.38 21 12.65
02/08 03:00 0.00 3.37 21 12.65
02/08 04:00 0.00 3.38 21 12.65
02/08 05:00 0.00 3.34 18 12.65
02/08 06:00 0.00 3.35 19 12.57
02/08 07:00 0.00 3.34 18 12.57
02/08 08:00 0.00 3.36 20 12.57
02/08 09:00 0.00 3.32 16 13.53
02/08 10:00 0.00 3.33 17 13.53
02/08 11:00 0.00 3.36 20 13.60
02/08 12:00 0.00 3.32 16 13.68
02/08 13:00 0.00 3.34 18 13.68
02/08 14:00 0.00 3.32 16 13.60
02/08 15:00 0.00 3.31 16 13.53
02/08 16:00 0.00 3.34 18 13.60
02/08 17:00 0.00 3.36 20 13.53
02/08 18:00 0.00 3.34 18 13.44
02/08 19:00 0.00 3.34 18 12.97
02/08 20:00 0.00 3.35 19 12.89
02/08 21:00 0.00 3.37 21 12.81
02/08 22:00 0.00 3.34 18 12.81
02/08 23:00 0.00 3.37 21 12.73